sensor_id;sensor_type;location;lat;lon;timestamp;P1;durP1;ratioP1;P2;durP2;ratioP2
85204;SDS011;75582;47.444;21.396;2024-03-23T00:53:16;28.50;;;14.40;;
85204;SDS011;75582;47.444;21.396;2024-03-23T00:54:42;27.77;;;14.63;;
85204;SDS011;75582;47.444;21.396;2024-03-23T00:56:09;24.98;;;13.70;;
85204;SDS011;75582;47.444;21.396;2024-03-23T00:57:35;33.47;;;13.90;;
85204;SDS011;75582;47.444;21.396;2024-03-23T00:59:01;26.92;;;14.45;;
85204;SDS011;75582;47.444;21.396;2024-03-23T01:00:27;27.50;;;14.93;;
85204;SDS011;75582;47.444;21.396;2024-03-23T01:01:53;27.65;;;15.02;;
85204;SDS011;75582;47.444;21.396;2024-03-23T01:03:18;25.77;;;13.60;;
85204;SDS011;75582;47.444;21.396;2024-03-23T01:04:44;26.67;;;14.37;;
85204;SDS011;75582;47.444;21.396;2024-03-23T01:06:11;30.00;;;14.48;;
85204;SDS011;75582;47.444;21.396;2024-03-23T01:07:37;27.70;;;15.57;;
85204;SDS011;75582;47.444;21.396;2024-03-23T01:09:03;31.63;;;14.75;;
85204;SDS011;75582;47.444;21.396;2024-03-23T01:10:29;29.13;;;15.50;;
85204;SDS011;75582;47.444;21.396;2024-03-23T01:11:55;27.95;;;14.30;;
85204;SDS011;75582;47.444;21.396;2024-03-23T01:13:21;27.23;;;14.88;;
85204;SDS011;75582;47.444;21.396;2024-03-23T01:14:48;32.00;;;14.65;;
85204;SDS011;75582;47.444;21.396;2024-03-23T01:16:14;32.45;;;14.82;;
85204;SDS011;75582;47.444;21.396;2024-03-23T01:17:40;27.33;;;14.27;;
85204;SDS011;75582;47.444;21.396;2024-03-23T01:19:06;30.63;;;15.23;;
85204;SDS011;75582;47.444;21.396;2024-03-23T01:20:39;30.40;;;15.80;;
85204;SDS011;75582;47.444;21.396;2024-03-23T01:22:05;32.45;;;16.17;;
85204;SDS011;75582;47.444;21.396;2024-03-23T01:23:31;32.83;;;16.10;;
85204;SDS011;75582;47.444;21.396;2024-03-23T01:24:57;32.03;;;16.08;;
85204;SDS011;75582;47.444;21.396;2024-03-23T01:26:23;31.70;;;15.98;;
85204;SDS011;75582;47.444;21.396;2024-03-23T01:27:49;30.25;;;15.75;;
85204;SDS011;75582;47.444;21.396;2024-03-23T01:29:15;39.42;;;15.60;;
85204;SDS011;75582;47.444;21.396;2024-03-23T01:30:41;41.22;;;15.13;;
85204;SDS011;75582;47.444;21.396;2024-03-23T01:32:07;27.58;;;13.88;;
85204;SDS011;75582;47.444;21.396;2024-03-23T01:33:33;32.90;;;14.97;;
85204;SDS011;75582;47.444;21.396;2024-03-23T01:34:59;32.90;;;15.50;;
85204;SDS011;75582;47.444;21.396;2024-03-23T01:36:25;32.40;;;16.30;;
85204;SDS011;75582;47.444;21.396;2024-03-23T01:37:51;32.60;;;14.73;;
85204;SDS011;75582;47.444;21.396;2024-03-23T01:39:17;36.50;;;16.30;;
85204;SDS011;75582;47.444;21.396;2024-03-23T01:40:43;31.90;;;15.50;;
85204;SDS011;75582;47.444;21.396;2024-03-23T01:42:09;30.48;;;15.63;;
85204;SDS011;75582;47.444;21.396;2024-03-23T01:43:34;34.38;;;15.95;;
85204;SDS011;75582;47.444;21.396;2024-03-23T01:44:59;32.22;;;16.45;;
85204;SDS011;75582;47.444;21.396;2024-03-23T01:46:26;29.88;;;14.88;;
85204;SDS011;75582;47.444;21.396;2024-03-23T01:47:52;31.33;;;15.83;;
85204;SDS011;75582;47.444;21.396;2024-03-23T01:49:20;29.60;;;15.60;;
85204;SDS011;75582;47.444;21.396;2024-03-23T01:50:46;30.40;;;14.60;;
85204;SDS011;75582;47.444;21.396;2024-03-23T01:52:13;36.10;;;16.70;;
85204;SDS011;75582;47.444;21.396;2024-03-23T01:53:40;35.03;;;16.25;;
85204;SDS011;75582;47.444;21.396;2024-03-23T01:55:05;30.48;;;15.43;;
85204;SDS011;75582;47.444;21.396;2024-03-23T01:56:33;31.75;;;16.27;;
85204;SDS011;75582;47.444;21.396;2024-03-23T01:58:02;31.08;;;16.27;;
85204;SDS011;75582;47.444;21.396;2024-03-23T01:59:28;32.13;;;15.73;;
85204;SDS011;75582;47.444;21.396;2024-03-23T02:00:54;30.23;;;15.07;;
85204;SDS011;75582;47.444;21.396;2024-03-23T02:02:19;31.63;;;15.50;;
85204;SDS011;75582;47.444;21.396;2024-03-23T02:03:46;32.47;;;16.00;;
85204;SDS011;75582;47.444;21.396;2024-03-23T02:05:12;34.38;;;16.73;;
85204;SDS011;75582;47.444;21.396;2024-03-23T02:06:38;33.00;;;16.38;;
85204;SDS011;75582;47.444;21.396;2024-03-23T02:08:05;31.10;;;15.45;;
85204;SDS011;75582;47.444;21.396;2024-03-23T02:09:31;34.97;;;15.18;;
85204;SDS011;75582;47.444;21.396;2024-03-23T02:10:56;32.25;;;16.40;;
85204;SDS011;75582;47.444;21.396;2024-03-23T02:12:23;30.75;;;16.35;;
85204;SDS011;75582;47.444;21.396;2024-03-23T02:13:49;31.33;;;15.75;;
85204;SDS011;75582;47.444;21.396;2024-03-23T02:15:16;34.72;;;16.60;;
85204;SDS011;75582;47.444;21.396;2024-03-23T02:16:48;32.77;;;15.73;;
85204;SDS011;75582;47.444;21.396;2024-03-23T02:18:14;32.75;;;15.05;;
85204;SDS011;75582;47.444;21.396;2024-03-23T02:19:41;33.17;;;17.05;;
85204;SDS011;75582;47.444;21.396;2024-03-23T02:21:06;37.53;;;17.02;;
85204;SDS011;75582;47.444;21.396;2024-03-23T02:22:36;30.02;;;16.58;;
85204;SDS011;75582;47.444;21.396;2024-03-23T02:24:03;30.73;;;16.48;;
85204;SDS011;75582;47.444;21.396;2024-03-23T02:25:28;29.48;;;15.70;;
85204;SDS011;75582;47.444;21.396;2024-03-23T02:26:55;31.95;;;15.68;;
85204;SDS011;75582;47.444;21.396;2024-03-23T02:28:21;31.20;;;15.85;;
85204;SDS011;75582;47.444;21.396;2024-03-23T02:29:47;32.70;;;15.65;;
85204;SDS011;75582;47.444;21.396;2024-03-23T02:31:14;34.77;;;16.77;;
85204;SDS011;75582;47.444;21.396;2024-03-23T02:32:41;31.42;;;16.35;;
85204;SDS011;75582;47.444;21.396;2024-03-23T02:34:07;30.60;;;15.43;;
85204;SDS011;75582;47.444;21.396;2024-03-23T02:35:33;32.08;;;15.95;;
85204;SDS011;75582;47.444;21.396;2024-03-23T02:36:58;30.45;;;16.50;;
85204;SDS011;75582;47.444;21.396;2024-03-23T02:38:25;32.78;;;16.40;;
85204;SDS011;75582;47.444;21.396;2024-03-23T02:39:50;33.22;;;15.40;;
85204;SDS011;75582;47.444;21.396;2024-03-23T02:41:17;32.42;;;16.08;;
85204;SDS011;75582;47.444;21.396;2024-03-23T02:42:47;30.02;;;16.42;;
85204;SDS011;75582;47.444;21.396;2024-03-23T02:44:14;36.33;;;16.35;;
85204;SDS011;75582;47.444;21.396;2024-03-23T02:45:47;30.97;;;16.17;;
85204;SDS011;75582;47.444;21.396;2024-03-23T02:47:12;32.85;;;16.02;;
85204;SDS011;75582;47.444;21.396;2024-03-23T02:48:38;28.98;;;15.48;;
85204;SDS011;75582;47.444;21.396;2024-03-23T02:50:05;33.60;;;16.45;;
85204;SDS011;75582;47.444;21.396;2024-03-23T02:51:31;33.05;;;16.67;;
85204;SDS011;75582;47.444;21.396;2024-03-23T02:52:58;35.35;;;16.45;;
85204;SDS011;75582;47.444;21.396;2024-03-23T02:54:24;32.47;;;15.75;;
85204;SDS011;75582;47.444;21.396;2024-03-23T02:55:50;36.03;;;17.00;;
85204;SDS011;75582;47.444;21.396;2024-03-23T02:57:16;31.67;;;17.80;;
85204;SDS011;75582;47.444;21.396;2024-03-23T02:58:42;32.30;;;15.43;;
85204;SDS011;75582;47.444;21.396;2024-03-23T03:00:09;35.50;;;17.33;;
85204;SDS011;75582;47.444;21.396;2024-03-23T03:01:36;36.70;;;16.35;;
85204;SDS011;75582;47.444;21.396;2024-03-23T03:03:01;39.95;;;16.63;;
85204;SDS011;75582;47.444;21.396;2024-03-23T03:04:29;36.22;;;16.48;;
85204;SDS011;75582;47.444;21.396;2024-03-23T03:05:55;33.28;;;15.43;;
85204;SDS011;75582;47.444;21.396;2024-03-23T03:07:22;38.22;;;17.20;;
85204;SDS011;75582;47.444;21.396;2024-03-23T03:08:48;30.50;;;16.67;;
85204;SDS011;75582;47.444;21.396;2024-03-23T03:10:14;32.25;;;16.77;;
85204;SDS011;75582;47.444;21.396;2024-03-23T03:11:40;31.42;;;17.67;;
85204;SDS011;75582;47.444;21.396;2024-03-23T03:13:06;29.98;;;16.45;;
85204;SDS011;75582;47.444;21.396;2024-03-23T03:14:31;34.80;;;15.80;;
85204;SDS011;75582;47.444;21.396;2024-03-23T03:15:58;32.40;;;17.38;;
85204;SDS011;75582;47.444;21.396;2024-03-23T03:17:23;34.30;;;16.70;;
85204;SDS011;75582;47.444;21.396;2024-03-23T03:18:49;33.35;;;17.05;;
85204;SDS011;75582;47.444;21.396;2024-03-23T03:20:15;32.58;;;16.27;;
85204;SDS011;75582;47.444;21.396;2024-03-23T03:21:43;30.13;;;16.63;;
85204;SDS011;75582;47.444;21.396;2024-03-23T03:23:09;34.78;;;16.75;;
85204;SDS011;75582;47.444;21.396;2024-03-23T03:24:35;35.97;;;17.77;;
85204;SDS011;75582;47.444;21.396;2024-03-23T03:26:01;36.28;;;18.17;;
85204;SDS011;75582;47.444;21.396;2024-03-23T03:27:28;35.83;;;17.35;;
85204;SDS011;75582;47.444;21.396;2024-03-23T03:28:53;36.03;;;18.07;;
85204;SDS011;75582;47.444;21.396;2024-03-23T03:30:20;33.33;;;16.85;;
85204;SDS011;75582;47.444;21.396;2024-03-23T03:31:45;34.90;;;16.60;;
85204;SDS011;75582;47.444;21.396;2024-03-23T03:33:12;32.72;;;16.67;;
85204;SDS011;75582;47.444;21.396;2024-03-23T03:34:38;33.83;;;17.05;;
85204;SDS011;75582;47.444;21.396;2024-03-23T03:36:03;31.50;;;17.25;;
85204;SDS011;75582;47.444;21.396;2024-03-23T03:37:30;34.00;;;17.05;;
85204;SDS011;75582;47.444;21.396;2024-03-23T03:38:56;33.08;;;16.98;;
85204;SDS011;75582;47.444;21.396;2024-03-23T03:40:21;34.30;;;17.58;;
85204;SDS011;75582;47.444;21.396;2024-03-23T03:41:48;39.10;;;16.70;;
85204;SDS011;75582;47.444;21.396;2024-03-23T03:43:14;28.77;;;15.37;;
85204;SDS011;75582;47.444;21.396;2024-03-23T03:44:41;35.53;;;16.95;;
85204;SDS011;75582;47.444;21.396;2024-03-23T03:46:07;33.03;;;17.10;;
85204;SDS011;75582;47.444;21.396;2024-03-23T03:47:40;33.33;;;16.98;;
85204;SDS011;75582;47.444;21.396;2024-03-23T03:49:06;31.58;;;17.05;;
85204;SDS011;75582;47.444;21.396;2024-03-23T03:50:32;36.42;;;18.40;;
85204;SDS011;75582;47.444;21.396;2024-03-23T03:51:58;33.20;;;17.23;;
85204;SDS011;75582;47.444;21.396;2024-03-23T03:53:23;34.72;;;16.63;;
85204;SDS011;75582;47.444;21.396;2024-03-23T03:54:50;34.80;;;17.70;;
85204;SDS011;75582;47.444;21.396;2024-03-23T03:56:16;37.70;;;17.52;;
85204;SDS011;75582;47.444;21.396;2024-03-23T03:57:42;34.57;;;17.47;;
85204;SDS011;75582;47.444;21.396;2024-03-23T03:59:08;34.25;;;17.38;;
85204;SDS011;75582;47.444;21.396;2024-03-23T04:00:34;35.90;;;17.23;;
85204;SDS011;75582;47.444;21.396;2024-03-23T04:02:01;33.45;;;17.05;;
85204;SDS011;75582;47.444;21.396;2024-03-23T04:03:27;33.88;;;17.05;;
85204;SDS011;75582;47.444;21.396;2024-03-23T04:04:53;35.25;;;17.13;;
85204;SDS011;75582;47.444;21.396;2024-03-23T04:06:19;32.83;;;17.33;;
85204;SDS011;75582;47.444;21.396;2024-03-23T04:07:45;34.75;;;17.83;;
85204;SDS011;75582;47.444;21.396;2024-03-23T04:09:10;37.72;;;17.67;;
85204;SDS011;75582;47.444;21.396;2024-03-23T04:10:36;38.83;;;17.67;;
85204;SDS011;75582;47.444;21.396;2024-03-23T04:12:03;32.57;;;17.60;;
85204;SDS011;75582;47.444;21.396;2024-03-23T04:13:28;37.70;;;18.98;;
85204;SDS011;75582;47.444;21.396;2024-03-23T04:14:55;37.75;;;18.70;;
85204;SDS011;75582;47.444;21.396;2024-03-23T04:16:24;37.75;;;18.38;;
85204;SDS011;75582;47.444;21.396;2024-03-23T04:17:52;35.90;;;17.52;;
85204;SDS011;75582;47.444;21.396;2024-03-23T04:19:17;36.83;;;17.58;;
85204;SDS011;75582;47.444;21.396;2024-03-23T04:20:44;31.65;;;17.40;;
85204;SDS011;75582;47.444;21.396;2024-03-23T04:22:10;34.38;;;17.45;;
85204;SDS011;75582;47.444;21.396;2024-03-23T04:23:36;35.42;;;16.55;;
85204;SDS011;75582;47.444;21.396;2024-03-23T04:25:02;37.17;;;16.90;;
85204;SDS011;75582;47.444;21.396;2024-03-23T04:26:41;35.30;;;16.87;;
85204;SDS011;75582;47.444;21.396;2024-03-23T04:28:07;34.45;;;17.10;;
85204;SDS011;75582;47.444;21.396;2024-03-23T04:29:34;35.28;;;17.45;;
85204;SDS011;75582;47.444;21.396;2024-03-23T04:31:03;33.47;;;16.27;;
85204;SDS011;75582;47.444;21.396;2024-03-23T04:32:30;36.72;;;16.83;;
85204;SDS011;75582;47.444;21.396;2024-03-23T04:33:56;36.08;;;16.58;;
85204;SDS011;75582;47.444;21.396;2024-03-23T04:35:22;36.00;;;17.23;;
85204;SDS011;75582;47.444;21.396;2024-03-23T04:36:50;36.42;;;17.05;;
85204;SDS011;75582;47.444;21.396;2024-03-23T04:38:17;29.98;;;16.17;;
85204;SDS011;75582;47.444;21.396;2024-03-23T04:39:43;39.22;;;17.60;;
85204;SDS011;75582;47.444;21.396;2024-03-23T04:41:09;35.87;;;16.80;;
85204;SDS011;75582;47.444;21.396;2024-03-23T04:42:35;34.58;;;16.88;;
85204;SDS011;75582;47.444;21.396;2024-03-23T04:44:01;34.03;;;16.85;;
85204;SDS011;75582;47.444;21.396;2024-03-23T04:45:35;32.88;;;17.17;;
85204;SDS011;75582;47.444;21.396;2024-03-23T04:47:01;32.75;;;16.48;;
85204;SDS011;75582;47.444;21.396;2024-03-23T04:48:33;33.60;;;16.83;;
85204;SDS011;75582;47.444;21.396;2024-03-23T04:50:00;31.17;;;17.50;;
85204;SDS011;75582;47.444;21.396;2024-03-23T04:51:27;40.13;;;17.83;;
85204;SDS011;75582;47.444;21.396;2024-03-23T04:52:53;33.28;;;16.70;;
85204;SDS011;75582;47.444;21.396;2024-03-23T04:54:19;34.40;;;17.27;;
85204;SDS011;75582;47.444;21.396;2024-03-23T04:55:45;33.17;;;17.77;;
85204;SDS011;75582;47.444;21.396;2024-03-23T04:57:11;37.90;;;17.98;;
85204;SDS011;75582;47.444;21.396;2024-03-23T04:58:37;31.90;;;17.02;;
85204;SDS011;75582;47.444;21.396;2024-03-23T05:00:02;31.52;;;17.27;;
85204;SDS011;75582;47.444;21.396;2024-03-23T05:01:37;36.85;;;18.48;;
85204;SDS011;75582;47.444;21.396;2024-03-23T05:03:05;37.50;;;18.98;;
85204;SDS011;75582;47.444;21.396;2024-03-23T05:04:31;39.63;;;18.55;;
85204;SDS011;75582;47.444;21.396;2024-03-23T05:05:57;35.42;;;17.55;;
85204;SDS011;75582;47.444;21.396;2024-03-23T05:07:24;35.67;;;18.10;;
85204;SDS011;75582;47.444;21.396;2024-03-23T05:08:50;37.00;;;17.17;;
85204;SDS011;75582;47.444;21.396;2024-03-23T05:10:15;37.90;;;18.60;;
85204;SDS011;75582;47.444;21.396;2024-03-23T05:11:41;34.40;;;17.02;;
85204;SDS011;75582;47.444;21.396;2024-03-23T05:13:08;37.67;;;17.05;;
85204;SDS011;75582;47.444;21.396;2024-03-23T05:14:34;34.05;;;16.90;;
85204;SDS011;75582;47.444;21.396;2024-03-23T05:16:00;29.75;;;16.02;;
85204;SDS011;75582;47.444;21.396;2024-03-23T05:17:26;37.78;;;17.23;;
85204;SDS011;75582;47.444;21.396;2024-03-23T05:18:52;34.53;;;17.25;;
85204;SDS011;75582;47.444;21.396;2024-03-23T05:20:17;33.22;;;15.18;;
85204;SDS011;75582;47.444;21.396;2024-03-23T05:21:44;31.92;;;15.80;;
85204;SDS011;75582;47.444;21.396;2024-03-23T05:23:10;30.30;;;14.73;;
85204;SDS011;75582;47.444;21.396;2024-03-23T05:24:37;31.93;;;15.87;;
85204;SDS011;75582;47.444;21.396;2024-03-23T05:26:03;31.25;;;15.57;;
85204;SDS011;75582;47.444;21.396;2024-03-23T05:27:31;27.77;;;15.65;;
85204;SDS011;75582;47.444;21.396;2024-03-23T05:28:57;34.50;;;16.92;;
85204;SDS011;75582;47.444;21.396;2024-03-23T05:30:23;31.00;;;15.63;;
85204;SDS011;75582;47.444;21.396;2024-03-23T05:31:49;30.98;;;16.02;;
85204;SDS011;75582;47.444;21.396;2024-03-23T05:33:18;30.40;;;15.95;;
85204;SDS011;75582;47.444;21.396;2024-03-23T05:34:44;30.10;;;15.88;;
85204;SDS011;75582;47.444;21.396;2024-03-23T05:36:11;29.80;;;15.32;;
85204;SDS011;75582;47.444;21.396;2024-03-23T05:37:37;34.67;;;16.33;;
85204;SDS011;75582;47.444;21.396;2024-03-23T05:39:04;29.67;;;14.27;;
85204;SDS011;75582;47.444;21.396;2024-03-23T05:40:30;27.58;;;14.70;;
85204;SDS011;75582;47.444;21.396;2024-03-23T05:41:55;31.73;;;14.70;;
85204;SDS011;75582;47.444;21.396;2024-03-23T05:43:21;27.88;;;14.55;;
85204;SDS011;75582;47.444;21.396;2024-03-23T05:44:47;29.95;;;14.90;;
85204;SDS011;75582;47.444;21.396;2024-03-23T05:46:12;26.95;;;14.32;;
85204;SDS011;75582;47.444;21.396;2024-03-23T05:47:39;29.73;;;15.25;;
85204;SDS011;75582;47.444;21.396;2024-03-23T05:49:04;39.10;;;16.25;;
85204;SDS011;75582;47.444;21.396;2024-03-23T05:50:31;31.23;;;16.15;;
85204;SDS011;75582;47.444;21.396;2024-03-23T05:51:56;26.80;;;13.60;;
85204;SDS011;75582;47.444;21.396;2024-03-23T05:53:23;27.33;;;15.10;;
85204;SDS011;75582;47.444;21.396;2024-03-23T05:54:48;26.05;;;14.30;;
85204;SDS011;75582;47.444;21.396;2024-03-23T05:56:14;27.15;;;14.40;;
85204;SDS011;75582;47.444;21.396;2024-03-23T05:57:39;25.20;;;13.98;;
85204;SDS011;75582;47.444;21.396;2024-03-23T05:59:05;27.67;;;13.95;;
85204;SDS011;75582;47.444;21.396;2024-03-23T06:00:31;26.20;;;13.02;;
85204;SDS011;75582;47.444;21.396;2024-03-23T06:01:57;26.40;;;14.40;;
85204;SDS011;75582;47.444;21.396;2024-03-23T06:03:24;27.45;;;14.20;;
85204;SDS011;75582;47.444;21.396;2024-03-23T06:04:49;27.15;;;13.68;;
85204;SDS011;75582;47.444;21.396;2024-03-23T06:06:15;26.55;;;13.63;;
85204;SDS011;75582;47.444;21.396;2024-03-23T06:07:42;25.70;;;13.67;;
85204;SDS011;75582;47.444;21.396;2024-03-23T06:09:08;24.10;;;13.90;;
85204;SDS011;75582;47.444;21.396;2024-03-23T06:10:33;28.33;;;15.25;;
85204;SDS011;75582;47.444;21.396;2024-03-23T06:11:59;29.92;;;14.70;;
85204;SDS011;75582;47.444;21.396;2024-03-23T06:13:25;28.38;;;15.10;;
85204;SDS011;75582;47.444;21.396;2024-03-23T06:14:55;27.75;;;13.52;;
85204;SDS011;75582;47.444;21.396;2024-03-23T06:16:21;30.33;;;15.38;;
85204;SDS011;75582;47.444;21.396;2024-03-23T06:17:48;29.02;;;15.45;;
85204;SDS011;75582;47.444;21.396;2024-03-23T06:19:14;27.42;;;15.32;;
85204;SDS011;75582;47.444;21.396;2024-03-23T06:20:40;29.05;;;14.90;;
85204;SDS011;75582;47.444;21.396;2024-03-23T06:22:05;29.30;;;13.97;;
85204;SDS011;75582;47.444;21.396;2024-03-23T06:23:32;29.35;;;14.85;;
85204;SDS011;75582;47.444;21.396;2024-03-23T06:24:58;28.52;;;15.60;;
85204;SDS011;75582;47.444;21.396;2024-03-23T06:26:23;27.25;;;14.00;;
85204;SDS011;75582;47.444;21.396;2024-03-23T06:27:50;29.70;;;16.17;;
85204;SDS011;75582;47.444;21.396;2024-03-23T06:29:16;33.67;;;14.68;;
85204;SDS011;75582;47.444;21.396;2024-03-23T06:30:42;25.92;;;14.68;;
85204;SDS011;75582;47.444;21.396;2024-03-23T06:32:07;24.40;;;13.88;;
85204;SDS011;75582;47.444;21.396;2024-03-23T06:33:34;30.70;;;15.82;;
85204;SDS011;75582;47.444;21.396;2024-03-23T06:35:00;24.75;;;14.77;;
85204;SDS011;75582;47.444;21.396;2024-03-23T06:36:25;32.10;;;14.77;;
85204;SDS011;75582;47.444;21.396;2024-03-23T06:37:52;25.50;;;14.32;;
85204;SDS011;75582;47.444;21.396;2024-03-23T06:39:17;28.40;;;14.80;;
85204;SDS011;75582;47.444;21.396;2024-03-23T06:40:44;28.17;;;15.60;;
85204;SDS011;75582;47.444;21.396;2024-03-23T06:42:13;27.13;;;14.98;;
85204;SDS011;75582;47.444;21.396;2024-03-23T06:43:39;22.75;;;14.32;;
85204;SDS011;75582;47.444;21.396;2024-03-23T06:45:05;27.13;;;14.60;;
85204;SDS011;75582;47.444;21.396;2024-03-23T06:46:38;25.83;;;13.82;;
85204;SDS011;75582;47.444;21.396;2024-03-23T06:48:03;25.67;;;15.07;;
85204;SDS011;75582;47.444;21.396;2024-03-23T06:49:37;27.05;;;14.50;;
85204;SDS011;75582;47.444;21.396;2024-03-23T06:51:02;28.67;;;15.17;;
85204;SDS011;75582;47.444;21.396;2024-03-23T06:52:42;24.85;;;13.20;;
85204;SDS011;75582;47.444;21.396;2024-03-23T06:54:08;26.27;;;14.63;;
85204;SDS011;75582;47.444;21.396;2024-03-23T06:55:33;26.00;;;15.10;;
85204;SDS011;75582;47.444;21.396;2024-03-23T06:56:59;29.48;;;16.65;;
85204;SDS011;75582;47.444;21.396;2024-03-23T06:58:25;28.50;;;15.20;;
85204;SDS011;75582;47.444;21.396;2024-03-23T06:59:51;31.73;;;15.50;;
85204;SDS011;75582;47.444;21.396;2024-03-23T07:01:17;31.55;;;16.77;;
85204;SDS011;75582;47.444;21.396;2024-03-23T07:02:43;27.17;;;14.85;;
85204;SDS011;75582;47.444;21.396;2024-03-23T07:04:09;27.67;;;15.98;;
85204;SDS011;75582;47.444;21.396;2024-03-23T07:05:35;27.33;;;16.00;;
85204;SDS011;75582;47.444;21.396;2024-03-23T07:07:01;25.58;;;14.15;;
85204;SDS011;75582;47.444;21.396;2024-03-23T07:08:27;30.58;;;15.45;;
85204;SDS011;75582;47.444;21.396;2024-03-23T07:09:53;28.90;;;15.23;;
85204;SDS011;75582;47.444;21.396;2024-03-23T07:11:20;29.88;;;15.60;;
85204;SDS011;75582;47.444;21.396;2024-03-23T07:12:46;26.55;;;14.88;;
85204;SDS011;75582;47.444;21.396;2024-03-23T07:14:13;28.02;;;15.10;;
85204;SDS011;75582;47.444;21.396;2024-03-23T07:15:38;27.33;;;16.05;;
85204;SDS011;75582;47.444;21.396;2024-03-23T07:17:05;25.58;;;16.30;;
85204;SDS011;75582;47.444;21.396;2024-03-23T07:18:31;26.27;;;14.73;;
85204;SDS011;75582;47.444;21.396;2024-03-23T07:19:57;26.10;;;14.80;;
85204;SDS011;75582;47.444;21.396;2024-03-23T07:21:23;24.58;;;14.07;;
85204;SDS011;75582;47.444;21.396;2024-03-23T07:22:49;32.13;;;15.45;;
85204;SDS011;75582;47.444;21.396;2024-03-23T07:24:14;28.23;;;15.75;;
85204;SDS011;75582;47.444;21.396;2024-03-23T07:25:41;26.65;;;15.48;;
85204;SDS011;75582;47.444;21.396;2024-03-23T07:27:06;24.17;;;14.70;;
85204;SDS011;75582;47.444;21.396;2024-03-23T07:28:35;25.77;;;15.27;;
85204;SDS011;75582;47.444;21.396;2024-03-23T07:30:01;30.95;;;15.13;;
85204;SDS011;75582;47.444;21.396;2024-03-23T07:31:27;25.08;;;14.27;;
85204;SDS011;75582;47.444;21.396;2024-03-23T07:32:52;24.67;;;15.07;;
85204;SDS011;75582;47.444;21.396;2024-03-23T07:34:19;26.70;;;14.90;;
85204;SDS011;75582;47.444;21.396;2024-03-23T07:35:44;24.38;;;14.93;;
85204;SDS011;75582;47.444;21.396;2024-03-23T07:37:10;22.80;;;13.65;;
85204;SDS011;75582;47.444;21.396;2024-03-23T07:38:36;25.27;;;14.48;;
85204;SDS011;75582;47.444;21.396;2024-03-23T07:40:03;29.15;;;15.73;;
85204;SDS011;75582;47.444;21.396;2024-03-23T07:41:28;25.65;;;14.57;;
85204;SDS011;75582;47.444;21.396;2024-03-23T07:42:55;23.95;;;14.55;;
85204;SDS011;75582;47.444;21.396;2024-03-23T07:44:22;25.50;;;14.88;;
85204;SDS011;75582;47.444;21.396;2024-03-23T07:45:53;23.95;;;14.50;;
85204;SDS011;75582;47.444;21.396;2024-03-23T07:47:33;24.90;;;14.35;;
85204;SDS011;75582;47.444;21.396;2024-03-23T07:48:59;24.17;;;15.33;;
85204;SDS011;75582;47.444;21.396;2024-03-23T07:50:24;22.73;;;14.80;;
85204;SDS011;75582;47.444;21.396;2024-03-23T07:51:50;23.60;;;14.65;;
85204;SDS011;75582;47.444;21.396;2024-03-23T07:53:16;24.98;;;14.52;;
85204;SDS011;75582;47.444;21.396;2024-03-23T07:54:44;25.55;;;15.10;;
85204;SDS011;75582;47.444;21.396;2024-03-23T07:56:10;25.35;;;14.20;;
85204;SDS011;75582;47.444;21.396;2024-03-23T07:57:36;20.60;;;13.18;;
85204;SDS011;75582;47.444;21.396;2024-03-23T07:59:02;22.80;;;13.77;;
85204;SDS011;75582;47.444;21.396;2024-03-23T08:00:29;21.55;;;13.77;;
85204;SDS011;75582;47.444;21.396;2024-03-23T08:01:54;22.33;;;12.88;;
85204;SDS011;75582;47.444;21.396;2024-03-23T08:03:20;21.47;;;13.53;;
85204;SDS011;75582;47.444;21.396;2024-03-23T08:04:46;24.27;;;13.65;;
85204;SDS011;75582;47.444;21.396;2024-03-23T08:06:16;23.13;;;13.88;;
85204;SDS011;75582;47.444;21.396;2024-03-23T08:07:43;24.30;;;14.30;;
85204;SDS011;75582;47.444;21.396;2024-03-23T08:09:09;26.70;;;15.15;;
85204;SDS011;75582;47.444;21.396;2024-03-23T08:10:35;22.35;;;12.95;;
85204;SDS011;75582;47.444;21.396;2024-03-23T08:12:01;23.40;;;13.10;;
85204;SDS011;75582;47.444;21.396;2024-03-23T08:13:27;21.25;;;13.35;;
85204;SDS011;75582;47.444;21.396;2024-03-23T08:14:53;18.55;;;12.55;;
85204;SDS011;75582;47.444;21.396;2024-03-23T08:16:19;19.95;;;12.23;;
85204;SDS011;75582;47.444;21.396;2024-03-23T08:17:45;18.83;;;13.07;;
85204;SDS011;75582;47.444;21.396;2024-03-23T08:19:12;20.05;;;12.80;;
85204;SDS011;75582;47.444;21.396;2024-03-23T08:20:38;21.08;;;13.40;;
85204;SDS011;75582;47.444;21.396;2024-03-23T08:22:03;21.05;;;13.50;;
85204;SDS011;75582;47.444;21.396;2024-03-23T08:23:30;21.83;;;13.43;;
85204;SDS011;75582;47.444;21.396;2024-03-23T08:25:05;19.55;;;12.25;;
85204;SDS011;75582;47.444;21.396;2024-03-23T08:26:31;20.63;;;12.45;;
85204;SDS011;75582;47.444;21.396;2024-03-23T08:27:58;18.25;;;11.93;;
85204;SDS011;75582;47.444;21.396;2024-03-23T08:29:23;19.58;;;12.70;;
85204;SDS011;75582;47.444;21.396;2024-03-23T08:30:49;18.38;;;12.50;;
85204;SDS011;75582;47.444;21.396;2024-03-23T08:32:15;19.40;;;12.13;;
85204;SDS011;75582;47.444;21.396;2024-03-23T08:33:42;19.88;;;11.98;;
85204;SDS011;75582;47.444;21.396;2024-03-23T08:35:09;16.88;;;12.00;;
85204;SDS011;75582;47.444;21.396;2024-03-23T08:36:35;18.77;;;12.32;;
85204;SDS011;75582;47.444;21.396;2024-03-23T08:38:01;17.98;;;12.32;;
85204;SDS011;75582;47.444;21.396;2024-03-23T08:39:27;19.23;;;11.60;;
85204;SDS011;75582;47.444;21.396;2024-03-23T08:42:23;20.65;;;11.20;;
85204;SDS011;75582;47.444;21.396;2024-03-23T08:43:49;17.40;;;11.82;;
85204;SDS011;75582;47.444;21.396;2024-03-23T08:45:15;17.20;;;11.25;;
85204;SDS011;75582;47.444;21.396;2024-03-23T08:46:42;18.47;;;11.90;;
85204;SDS011;75582;47.444;21.396;2024-03-23T08:48:14;17.13;;;12.18;;
85204;SDS011;75582;47.444;21.396;2024-03-23T08:49:40;18.02;;;12.23;;
85204;SDS011;75582;47.444;21.396;2024-03-23T08:51:07;16.60;;;11.95;;
85204;SDS011;75582;47.444;21.396;2024-03-23T08:52:33;18.27;;;12.32;;
85204;SDS011;75582;47.444;21.396;2024-03-23T08:54:00;18.02;;;12.18;;
85204;SDS011;75582;47.444;21.396;2024-03-23T08:55:26;17.05;;;11.07;;
85204;SDS011;75582;47.444;21.396;2024-03-23T08:56:52;15.48;;;11.77;;
85204;SDS011;75582;47.444;21.396;2024-03-23T08:58:17;20.48;;;11.55;;
85204;SDS011;75582;47.444;21.396;2024-03-23T08:59:45;16.33;;;10.80;;
85204;SDS011;75582;47.444;21.396;2024-03-23T09:01:12;17.03;;;12.13;;
85204;SDS011;75582;47.444;21.396;2024-03-23T09:02:41;17.38;;;10.68;;
85204;SDS011;75582;47.444;21.396;2024-03-23T09:04:07;17.02;;;11.43;;
85204;SDS011;75582;47.444;21.396;2024-03-23T09:05:38;17.65;;;11.48;;
85204;SDS011;75582;47.444;21.396;2024-03-23T09:07:04;20.20;;;11.65;;
85204;SDS011;75582;47.444;21.396;2024-03-23T09:08:30;16.73;;;10.88;;
85204;SDS011;75582;47.444;21.396;2024-03-23T09:09:56;14.48;;;11.00;;
85204;SDS011;75582;47.444;21.396;2024-03-23T09:11:22;17.58;;;11.60;;
85204;SDS011;75582;47.444;21.396;2024-03-23T09:12:47;14.85;;;11.20;;